createdAt,value
2023-03-29T00:02:07.989Z,4.78
2023-03-29T00:04:36.989Z,4.91
2023-03-29T00:07:06.018Z,4.89
2023-03-29T00:09:36.556Z,4.81
2023-03-29T00:12:05.642Z,4.83
2023-03-29T00:14:34.462Z,4.80
2023-03-29T00:17:03.451Z,4.83
2023-03-29T00:19:35.875Z,4.97
2023-03-29T00:22:06.010Z,4.85
2023-03-29T00:24:36.983Z,4.86
2023-03-29T00:27:06.942Z,5.08
2023-03-29T00:29:36.761Z,5.17
2023-03-29T00:32:06.674Z,4.82
2023-03-29T00:34:36.396Z,4.87
2023-03-29T00:37:08.022Z,4.90
2023-03-29T00:39:42.605Z,4.91
2023-03-29T00:42:14.899Z,4.90
2023-03-29T00:45:18.956Z,4.34
2023-03-29T00:47:49.677Z,5.00
2023-03-29T00:50:25.732Z,5.08
2023-03-29T00:53:00.961Z,5.03
2023-03-29T00:55:36.523Z,5.08
2023-03-29T00:58:08.999Z,5.06
2023-03-29T01:00:43.342Z,5.25
2023-03-29T01:03:15.468Z,5.18
2023-03-29T01:05:48.958Z,5.27
2023-03-29T01:08:21.716Z,5.38
2023-03-29T01:10:56.391Z,5.35
2023-03-29T01:13:29.767Z,5.40
2023-03-29T01:16:00.067Z,5.41
2023-03-29T01:18:31.491Z,5.52
2023-03-29T01:21:19.582Z,5.48
2023-03-29T01:24:09.270Z,5.51
2023-03-29T01:27:00.681Z,5.57
2023-03-29T01:29:37.118Z,5.53
2023-03-29T01:32:10.101Z,5.55
2023-03-29T01:34:46.206Z,5.81
2023-03-29T01:37:21.971Z,5.73
2023-03-29T01:39:51.065Z,5.71
2023-03-29T01:42:32.841Z,5.47
2023-03-29T01:45:12.431Z,5.67
2023-03-29T01:47:48.035Z,5.85
2023-03-29T01:50:21.009Z,5.80
2023-03-29T01:52:56.673Z,5.74
2023-03-29T01:55:30.057Z,5.42
2023-03-29T01:58:04.887Z,5.79
2023-03-29T02:00:37.562Z,5.84
2023-03-29T02:03:10.105Z,5.78
2023-03-29T02:05:41.225Z,5.84
2023-03-29T02:08:14.677Z,5.78
2023-03-29T02:10:43.817Z,5.86
2023-03-29T02:13:13.990Z,5.80
2023-03-29T02:15:45.902Z,5.92
2023-03-29T02:18:18.081Z,5.98
2023-03-29T02:20:51.014Z,6.02
2023-03-29T02:23:27.544Z,5.92
2023-03-29T02:25:59.100Z,5.96
2023-03-29T02:28:30.297Z,5.97
2023-03-29T02:31:06.822Z,6.07
2023-03-29T02:33:45.929Z,5.96
2023-03-29T02:36:23.795Z,6.00
2023-03-29T02:38:55.880Z,6.01
2023-03-29T02:41:27.221Z,6.02
2023-03-29T02:43:59.423Z,6.06
2023-03-29T02:46:31.606Z,6.14
2023-03-29T02:49:01.768Z,6.12
2023-03-29T02:51:34.959Z,6.04
2023-03-29T02:54:08.505Z,6.14
2023-03-29T02:56:46.876Z,6.24
2023-03-29T02:59:20.982Z,6.15
2023-03-29T03:01:52.883Z,6.14
2023-03-29T03:04:23.701Z,5.99
2023-03-29T03:06:53.629Z,6.07
2023-03-29T03:09:22.614Z,6.11
2023-03-29T03:11:52.150Z,6.24
2023-03-29T03:14:23.257Z,6.15
2023-03-29T03:16:55.285Z,6.18
2023-03-29T03:19:26.335Z,6.20
2023-03-29T03:21:56.525Z,6.19
2023-03-29T03:24:25.870Z,6.12
2023-03-29T03:26:56.143Z,6.24
2023-03-29T03:29:26.225Z,6.18
2023-03-29T03:32:26.481Z,6.25
2023-03-29T03:35:15.439Z,6.24
2023-03-29T03:37:44.997Z,6.25
2023-03-29T03:40:14.744Z,6.30
2023-03-29T03:42:44.366Z,6.27
2023-03-29T03:45:13.907Z,6.26
2023-03-29T03:47:56.374Z,6.28
2023-03-29T03:50:34.617Z,6.26
2023-03-29T03:53:04.721Z,6.42
2023-03-29T03:55:56.439Z,6.28
2023-03-29T03:58:32.841Z,6.25
2023-03-29T04:01:02.795Z,6.24
2023-03-29T04:03:46.085Z,6.29
2023-03-29T04:06:20.084Z,6.30
2023-03-29T04:09:10.372Z,6.49
2023-03-29T04:11:44.307Z,6.31
2023-03-29T04:14:15.343Z,6.34
2023-03-29T04:16:56.942Z,6.49
2023-03-29T04:19:45.928Z,6.42
2023-03-29T04:22:15.059Z,6.42
2023-03-29T04:24:44.901Z,6.50
2023-03-29T04:27:37.520Z,6.45
2023-03-29T04:30:16.180Z,6.38
2023-03-29T04:33:02.451Z,6.04
2023-03-29T04:35:33.456Z,6.38
2023-03-29T04:38:04.504Z,6.47
2023-03-29T04:40:35.452Z,6.37
2023-03-29T04:43:12.317Z,6.41
2023-03-29T04:45:49.201Z,6.39
2023-03-29T04:48:36.664Z,6.39
2023-03-29T04:51:08.219Z,6.56
2023-03-29T04:53:37.471Z,6.58
2023-03-29T04:56:07.071Z,6.54
2023-03-29T04:59:07.870Z,6.64
2023-03-29T05:01:37.001Z,6.67
2023-03-29T05:04:05.949Z,6.67
2023-03-29T05:06:42.031Z,5.95
2023-03-29T05:09:10.878Z,6.61
2023-03-29T05:11:53.510Z,6.68
2023-03-29T05:14:23.610Z,6.65
2023-03-29T05:16:52.638Z,6.68
2023-03-29T05:19:22.563Z,6.05
2023-03-29T05:21:55.315Z,6.64
2023-03-29T05:24:25.959Z,6.68
2023-03-29T05:26:54.820Z,6.74
2023-03-29T05:29:24.647Z,6.67
2023-03-29T05:32:01.456Z,6.69
2023-03-29T05:34:31.551Z,6.61
2023-03-29T05:37:04.988Z,6.71
2023-03-29T05:39:44.128Z,6.74
2023-03-29T05:42:15.727Z,6.65
2023-03-29T05:44:54.491Z,6.61
2023-03-29T05:47:23.881Z,6.92
2023-03-29T05:49:55.171Z,6.76
2023-03-29T05:52:28.720Z,6.75
2023-03-29T05:54:58.135Z,6.87
2023-03-29T05:57:27.886Z,6.79
2023-03-29T05:59:56.942Z,7.05
2023-03-29T06:02:28.631Z,6.92
2023-03-29T06:04:57.617Z,6.80
2023-03-29T06:07:26.931Z,6.77
2023-03-29T06:10:29.860Z,6.73
2023-03-29T06:13:12.825Z,6.84
2023-03-29T06:15:45.115Z,6.84
2023-03-29T06:18:14.070Z,6.83
2023-03-29T06:20:42.838Z,6.85
2023-03-29T06:23:15.807Z,6.90
2023-03-29T06:25:46.892Z,6.90
2023-03-29T06:28:16.619Z,6.95
2023-03-29T06:30:47.137Z,7.00
2023-03-29T06:33:17.320Z,6.43
2023-03-29T06:35:58.048Z,6.97
2023-03-29T06:38:30.978Z,7.04
2023-03-29T06:41:21.585Z,6.99
2023-03-29T06:44:08.937Z,7.02
2023-03-29T06:46:45.811Z,7.18
2023-03-29T06:49:16.846Z,7.22
2023-03-29T06:52:02.197Z,7.21
2023-03-29T06:54:31.353Z,7.24
2023-03-29T06:57:05.883Z,7.28
2023-03-29T06:59:35.837Z,7.27
2023-03-29T07:02:31.928Z,7.31
2023-03-29T07:05:14.487Z,7.33
2023-03-29T07:07:56.602Z,7.52
2023-03-29T07:10:39.569Z,7.43
2023-03-29T07:13:36.141Z,7.44
2023-03-29T07:16:12.484Z,7.52
2023-03-29T07:18:50.113Z,7.63
2023-03-29T07:21:37.945Z,7.65
2023-03-29T07:24:08.760Z,7.51
2023-03-29T07:26:38.210Z,7.69
2023-03-29T07:29:09.377Z,7.74
2023-03-29T07:31:40.970Z,7.73
2023-03-29T07:34:37.009Z,7.68
2023-03-29T07:37:09.390Z,7.67
2023-03-29T07:39:40.427Z,7.66
2023-03-29T07:42:36.646Z,7.72
2023-03-29T07:45:09.467Z,7.70
2023-03-29T07:47:50.223Z,7.68
2023-03-29T07:50:21.740Z,7.81
2023-03-29T07:52:51.194Z,7.72
2023-03-29T07:55:20.751Z,7.83
2023-03-29T07:57:59.197Z,7.93
2023-03-29T08:00:29.862Z,7.94
2023-03-29T08:03:18.719Z,8.02
2023-03-29T08:05:47.708Z,8.23
2023-03-29T08:08:18.085Z,8.13
2023-03-29T08:10:54.350Z,7.49
2023-03-29T08:13:37.455Z,8.13
2023-03-29T08:16:43.594Z,8.26
2023-03-29T08:19:16.698Z,8.43
2023-03-29T08:22:03.941Z,8.46
2023-03-29T08:24:50.803Z,8.46
2023-03-29T08:27:21.400Z,8.38
2023-03-29T08:29:50.429Z,8.52
2023-03-29T08:32:20.969Z,8.63
2023-03-29T08:34:50.829Z,8.69
2023-03-29T08:37:25.988Z,8.78
2023-03-29T08:39:57.622Z,8.79
2023-03-29T08:43:13.824Z,8.76
2023-03-29T08:46:23.533Z,8.90
2023-03-29T08:48:57.918Z,8.95
2023-03-29T08:51:33.869Z,9.06
2023-03-29T08:54:07.376Z,9.01
2023-03-29T08:56:59.600Z,9.20
2023-03-29T08:59:34.920Z,9.33
2023-03-29T09:02:17.897Z,9.28
2023-03-29T09:04:53.818Z,9.52
2023-03-29T09:07:33.886Z,9.34
2023-03-29T09:10:03.580Z,9.37
2023-03-29T09:12:52.759Z,9.25
2023-03-29T09:15:24.940Z,9.31
2023-03-29T09:18:12.799Z,9.35
2023-03-29T09:20:52.029Z,9.38
2023-03-29T09:23:58.241Z,9.37
2023-03-29T09:26:41.003Z,9.47
2023-03-29T09:29:42.174Z,9.56
2023-03-29T09:32:20.812Z,9.60
2023-03-29T09:35:04.679Z,9.77
2023-03-29T09:37:38.578Z,9.87
2023-03-29T09:40:14.730Z,10.02
2023-03-29T09:42:55.793Z,10.28
2023-03-29T09:45:24.994Z,10.57
2023-03-29T09:47:59.212Z,10.60
2023-03-29T09:50:35.996Z,10.49
2023-03-29T09:53:09.845Z,10.56
2023-03-29T09:55:44.872Z,10.51
2023-03-29T09:58:34.486Z,10.46
2023-03-29T10:01:10.467Z,10.49
2023-03-29T10:03:41.665Z,10.48
2023-03-29T10:06:18.641Z,10.37
2023-03-29T10:08:57.963Z,10.49
2023-03-29T10:11:48.672Z,10.34
2023-03-29T10:14:20.691Z,10.37
2023-03-29T10:16:56.966Z,10.44
2023-03-29T10:19:30.432Z,10.44
2023-03-29T10:22:01.645Z,10.29
2023-03-29T10:24:32.478Z,10.38
2023-03-29T10:27:03.796Z,10.52
2023-03-29T10:29:38.200Z,10.73
2023-03-29T10:32:15.845Z,10.66
2023-03-29T10:34:46.906Z,10.64
2023-03-29T10:37:19.311Z,9.98
2023-03-29T10:39:50.291Z,10.84
2023-03-29T10:42:24.433Z,10.97
2023-03-29T10:44:55.462Z,10.85
2023-03-29T10:47:25.062Z,10.81
2023-03-29T10:49:56.994Z,10.79
2023-03-29T10:52:26.888Z,10.78
2023-03-29T10:54:59.291Z,10.73
2023-03-29T10:57:34.936Z,10.95
2023-03-29T11:00:12.518Z,10.95
2023-03-29T11:03:07.360Z,10.91
2023-03-29T11:05:44.125Z,10.89
2023-03-29T11:08:33.580Z,10.88
2023-03-29T11:11:21.944Z,10.94
2023-03-29T11:14:00.041Z,10.95
2023-03-29T11:16:35.556Z,10.99
2023-03-29T11:19:26.027Z,10.97
2023-03-29T11:22:01.387Z,11.12
2023-03-29T11:24:47.742Z,11.11
2023-03-29T11:27:30.195Z,11.07
2023-03-29T11:30:08.361Z,10.98
2023-03-29T11:32:48.543Z,11.01
2023-03-29T11:35:49.386Z,10.99
2023-03-29T11:38:29.226Z,10.68
2023-03-29T11:41:09.415Z,10.89
2023-03-29T11:43:44.207Z,10.87
2023-03-29T11:46:17.039Z,10.87
2023-03-29T11:48:51.978Z,10.85
2023-03-29T11:51:27.216Z,11.04
2023-03-29T11:54:02.909Z,10.92
2023-03-29T11:56:37.918Z,10.90
2023-03-29T11:59:16.108Z,10.82
2023-03-29T12:01:50.812Z,10.80
2023-03-29T12:04:26.271Z,10.68
2023-03-29T12:07:03.212Z,10.79
2023-03-29T12:09:36.629Z,10.70
2023-03-29T12:12:11.834Z,10.60
2023-03-29T12:14:56.227Z,10.67
2023-03-29T12:17:31.927Z,10.63
2023-03-29T12:20:08.665Z,10.69
2023-03-29T12:22:49.078Z,10.68
2023-03-29T12:25:24.826Z,10.65
2023-03-29T12:28:06.842Z,10.63
2023-03-29T12:31:05.539Z,10.60
2023-03-29T12:34:07.002Z,10.83
2023-03-29T12:37:32.250Z,10.75
2023-03-29T12:40:42.989Z,10.81
2023-03-29T12:43:34.171Z,10.75
2023-03-29T12:46:26.976Z,10.82
2023-03-29T12:49:05.924Z,10.82
2023-03-29T12:51:40.934Z,10.85
2023-03-29T12:54:15.932Z,10.30
2023-03-29T12:56:58.431Z,10.90
2023-03-29T12:59:37.207Z,10.98
2023-03-29T13:05:27.718Z,11.27
2023-03-29T13:07:56.999Z,11.21
2023-03-29T13:10:40.777Z,11.29
2023-03-29T13:13:15.697Z,11.24
2023-03-29T13:15:46.106Z,11.33
2023-03-29T13:18:34.107Z,11.22
2023-03-29T13:21:15.519Z,11.35
2023-03-29T13:23:53.091Z,11.81
2023-03-29T13:26:35.163Z,11.61
2023-03-29T13:29:39.955Z,11.53
2023-03-29T13:32:27.948Z,11.60
2023-03-29T13:35:05.159Z,11.37
2023-03-29T13:37:47.423Z,11.47
2023-03-29T13:40:43.700Z,11.58
2023-03-29T13:43:22.456Z,11.71
2023-03-29T13:46:07.834Z,11.64
2023-03-29T13:48:52.809Z,11.59
2023-03-29T13:51:28.443Z,11.59
2023-03-29T13:54:08.379Z,11.64
2023-03-29T13:56:44.712Z,11.72
2023-03-29T13:59:20.038Z,11.82
2023-03-29T14:01:54.630Z,11.83
2023-03-29T14:04:29.423Z,11.94
2023-03-29T14:06:59.389Z,11.97
2023-03-29T14:09:34.080Z,12.12
2023-03-29T14:12:03.178Z,12.13
2023-03-29T14:14:33.975Z,12.21
2023-03-29T14:17:04.124Z,12.30
2023-03-29T14:19:37.722Z,12.38
2023-03-29T14:22:10.880Z,12.36
2023-03-29T14:24:48.148Z,12.41
2023-03-29T14:27:17.769Z,12.31
2023-03-29T14:29:48.180Z,12.41
2023-03-29T14:32:18.973Z,12.35
2023-03-29T14:34:51.706Z,12.51
2023-03-29T14:37:24.139Z,12.36
2023-03-29T14:39:55.054Z,12.27
2023-03-29T14:42:27.995Z,12.58
2023-03-29T14:44:59.809Z,12.64
2023-03-29T14:47:31.613Z,12.64
2023-03-29T14:50:01.831Z,12.09
2023-03-29T14:52:32.549Z,12.75
2023-03-29T14:55:04.203Z,12.84
2023-03-29T14:57:36.739Z,12.84
2023-03-29T15:00:22.418Z,12.75
2023-03-29T15:02:55.251Z,12.83
2023-03-29T15:05:29.791Z,12.88
2023-03-29T15:07:58.780Z,12.73
2023-03-29T15:10:32.735Z,12.86
2023-03-29T15:13:04.111Z,12.76
2023-03-29T15:15:35.734Z,12.46
2023-03-29T15:18:09.140Z,12.62
2023-03-29T15:20:40.226Z,12.76
2023-03-29T15:23:23.878Z,12.60
2023-03-29T15:25:57.226Z,12.63
2023-03-29T15:28:28.428Z,12.74
2023-03-29T15:33:37.239Z,12.39
2023-03-29T15:36:08.377Z,12.74
2023-03-29T15:38:43.829Z,12.55
2023-03-29T15:41:15.477Z,12.58
2023-03-29T15:43:44.520Z,12.59
2023-03-29T15:46:14.544Z,12.52
2023-03-29T15:48:43.933Z,12.44
2023-03-29T15:51:13.360Z,12.64
2023-03-29T15:53:42.755Z,12.39
2023-03-29T15:56:19.430Z,12.28
2023-03-29T15:58:48.872Z,12.31
2023-03-29T16:01:33.856Z,12.26
2023-03-29T16:04:03.860Z,12.38
2023-03-29T16:06:33.534Z,12.42
2023-03-29T16:09:02.638Z,12.41
2023-03-29T16:11:32.799Z,12.46
2023-03-29T16:14:03.878Z,12.58
2023-03-29T16:16:32.856Z,12.73
2023-03-29T16:19:03.743Z,12.57
2023-03-29T16:21:32.520Z,12.35
2023-03-29T16:24:01.757Z,12.30
2023-03-29T16:26:34.578Z,12.32
2023-03-29T16:29:05.722Z,12.27
2023-03-29T16:31:34.526Z,12.32
2023-03-29T16:34:03.509Z,12.35
2023-03-29T16:36:33.888Z,12.28
2023-03-29T16:39:03.218Z,12.30
2023-03-29T16:41:32.515Z,12.40
2023-03-29T16:44:05.418Z,12.28
2023-03-29T16:46:34.803Z,12.20
2023-03-29T16:49:04.333Z,12.26
2023-03-29T16:51:33.107Z,12.27
2023-03-29T16:54:04.151Z,12.21
2023-03-29T16:56:32.879Z,12.42
2023-03-29T16:59:01.605Z,12.40
2023-03-29T17:01:32.355Z,12.34
2023-03-29T17:04:03.641Z,12.25
2023-03-29T17:06:33.016Z,12.16
2023-03-29T17:09:02.109Z,12.20
2023-03-29T17:11:33.165Z,12.18
2023-03-29T17:14:04.317Z,12.17
2023-03-29T17:16:34.499Z,12.13
2023-03-29T17:19:03.345Z,12.19
2023-03-29T17:21:32.036Z,12.25
2023-03-29T17:24:00.973Z,12.23
2023-03-29T17:26:29.881Z,12.23
2023-03-29T17:28:58.597Z,12.20
2023-03-29T17:31:27.767Z,12.16
2023-03-29T17:33:58.160Z,12.21
2023-03-29T17:36:28.935Z,12.14
2023-03-29T17:41:30.444Z,12.06
2023-03-29T17:43:59.865Z,12.00
2023-03-29T17:46:28.705Z,12.06
2023-03-29T17:48:59.251Z,11.95
2023-03-29T17:51:28.862Z,11.82
2023-03-29T17:53:58.317Z,11.91
2023-03-29T17:56:27.481Z,11.84
2023-03-29T17:59:01.039Z,11.86
2023-03-29T18:01:32.876Z,12.07
2023-03-29T18:04:08.041Z,12.09
2023-03-29T18:06:37.155Z,12.23
2023-03-29T18:09:06.155Z,12.38
2023-03-29T18:11:36.464Z,12.16
2023-03-29T18:14:06.100Z,11.61
2023-03-29T18:16:34.995Z,12.30
2023-03-29T18:19:07.382Z,12.19
2023-03-29T18:21:37.016Z,11.90
2023-03-29T18:24:05.902Z,11.76
2023-03-29T18:26:34.710Z,11.64
2023-03-29T18:29:03.454Z,11.66
2023-03-29T18:31:32.345Z,11.75
2023-03-29T18:34:01.520Z,11.63
2023-03-29T18:36:32.374Z,11.78
2023-03-29T18:39:05.714Z,11.76
2023-03-29T18:41:35.723Z,12.13
2023-03-29T18:44:05.168Z,11.86
2023-03-29T18:46:34.295Z,11.68
2023-03-29T18:49:04.095Z,11.56
2023-03-29T18:51:34.821Z,11.42
2023-03-29T18:54:04.355Z,11.43
2023-03-29T18:56:33.062Z,11.53
2023-03-29T18:59:05.169Z,11.54
2023-03-29T19:01:34.704Z,11.36
2023-03-29T19:04:03.856Z,11.41
2023-03-29T19:06:34.138Z,11.42
2023-03-29T19:09:05.299Z,11.38
2023-03-29T19:11:36.125Z,11.72
2023-03-29T19:14:08.528Z,11.73
2023-03-29T19:16:38.206Z,11.21
2023-03-29T19:19:08.534Z,12.07
2023-03-29T19:21:39.429Z,11.85
2023-03-29T19:24:09.624Z,11.56
2023-03-29T19:26:39.109Z,11.35
2023-03-29T19:29:08.745Z,11.53
2023-03-29T19:31:39.620Z,11.62
2023-03-29T19:34:11.040Z,11.47
2023-03-29T19:36:41.898Z,11.76
2023-03-29T19:39:10.690Z,11.97
2023-03-29T19:41:41.392Z,11.50
2023-03-29T19:44:10.675Z,11.57
2023-03-29T19:46:39.501Z,11.65
2023-03-29T19:49:13.693Z,11.72
2023-03-29T19:51:46.359Z,11.74
2023-03-29T19:54:17.340Z,11.05
2023-03-29T19:56:49.538Z,11.94
2023-03-29T19:59:22.772Z,11.68
2023-03-29T20:01:51.876Z,11.66
2023-03-29T20:04:22.757Z,11.60
2023-03-29T20:06:53.049Z,11.67
2023-03-29T20:09:21.836Z,11.62
2023-03-29T20:11:50.649Z,11.49
2023-03-29T20:14:19.405Z,11.74
2023-03-29T20:16:49.930Z,11.67
2023-03-29T20:19:23.750Z,11.77
2023-03-29T20:21:57.507Z,11.66
2023-03-29T20:24:28.940Z,11.75
2023-03-29T20:26:57.729Z,11.68
2023-03-29T20:29:29.765Z,11.66
2023-03-29T20:31:59.304Z,11.56
2023-03-29T20:34:28.399Z,11.70
2023-03-29T20:37:00.997Z,11.82
2023-03-29T20:39:31.415Z,11.84
2023-03-29T20:42:00.567Z,11.55
2023-03-29T20:44:29.541Z,11.62
2023-03-29T20:47:06.324Z,11.50
2023-03-29T20:49:38.160Z,11.26
2023-03-29T20:52:15.443Z,11.15
2023-03-29T20:54:44.935Z,11.14
2023-03-29T20:57:16.074Z,10.97
2023-03-29T20:59:46.138Z,10.97
2023-03-29T21:02:17.391Z,10.96
2023-03-29T21:04:51.994Z,10.87
2023-03-29T21:07:23.040Z,10.91
2023-03-29T21:09:52.677Z,10.78
2023-03-29T21:12:23.732Z,10.88
2023-03-29T21:14:53.197Z,10.85
2023-03-29T21:17:22.216Z,10.90
2023-03-29T21:19:52.229Z,10.84
2023-03-29T21:22:23.454Z,11.06
2023-03-29T21:24:53.072Z,10.94
2023-03-29T21:27:22.467Z,11.00
2023-03-29T21:29:52.080Z,10.93
2023-03-29T21:32:22.171Z,10.91
2023-03-29T21:34:51.984Z,10.91
2023-03-29T21:37:23.556Z,10.92
2023-03-29T21:39:53.491Z,10.86
2023-03-29T21:42:23.198Z,10.90
2023-03-29T21:44:52.751Z,10.96
2023-03-29T21:47:24.035Z,10.90
2023-03-29T21:49:53.472Z,10.91
2023-03-29T21:52:24.085Z,10.87
2023-03-29T21:54:53.969Z,10.96
2023-03-29T21:57:23.143Z,10.96
2023-03-29T21:59:52.697Z,10.97
2023-03-29T22:02:25.043Z,11.12
2023-03-29T22:04:54.706Z,11.02
2023-03-29T22:07:25.985Z,10.97
2023-03-29T22:09:59.106Z,10.95
2023-03-29T22:12:28.622Z,11.02
2023-03-29T22:15:00.868Z,11.04
2023-03-29T22:17:30.365Z,11.12
2023-03-29T22:19:59.516Z,11.02
2023-03-29T22:22:31.140Z,11.06
2023-03-29T22:25:00.634Z,11.00
2023-03-29T22:27:30.204Z,11.07
2023-03-29T22:30:00.094Z,11.15
2023-03-29T22:32:32.621Z,11.14
2023-03-29T22:35:01.988Z,11.03
2023-03-29T22:37:33.270Z,11.08
2023-03-29T22:40:02.683Z,11.03
2023-03-29T22:42:32.449Z,11.18
2023-03-29T22:45:01.846Z,11.17
2023-03-29T22:47:31.487Z,11.02
2023-03-29T22:50:01.331Z,11.18
2023-03-29T22:52:30.287Z,11.15
2023-03-29T22:55:00.969Z,11.16
2023-03-29T22:57:30.303Z,11.33
2023-03-29T22:59:59.633Z,11.34
2023-03-29T23:02:29.823Z,11.24
2023-03-29T23:04:59.083Z,11.19
2023-03-29T23:07:29.999Z,11.17
2023-03-29T23:10:01.582Z,11.23
2023-03-29T23:12:31.873Z,11.34
2023-03-29T23:15:01.595Z,11.14
2023-03-29T23:17:33.201Z,11.18
2023-03-29T23:20:06.206Z,11.20
2023-03-29T23:22:36.733Z,11.19
2023-03-29T23:25:08.590Z,11.16
2023-03-29T23:27:38.273Z,11.19
2023-03-29T23:30:10.011Z,11.19
2023-03-29T23:32:40.195Z,10.77
2023-03-29T23:35:10.450Z,11.30
2023-03-29T23:37:39.763Z,11.37
2023-03-29T23:40:14.093Z,11.47
2023-03-29T23:42:45.311Z,11.51
2023-03-29T23:45:18.480Z,11.48
2023-03-29T23:47:48.474Z,11.62
2023-03-29T23:50:18.543Z,11.56
2023-03-29T23:52:49.753Z,11.73
2023-03-29T23:55:21.044Z,11.90
2023-03-29T23:57:50.668Z,12.25
